sensor_id;sensor_type;location;lat;lon;timestamp;P1;durP1;ratioP1;P2;durP2;ratioP2
15706;SDS011;7953;54.302;10.128;2023-07-13T00:01:03;5.50;;;2.60;;
15706;SDS011;7953;54.302;10.128;2023-07-13T00:03:31;5.10;;;2.87;;
15706;SDS011;7953;54.302;10.128;2023-07-13T00:06:01;6.97;;;2.90;;
15706;SDS011;7953;54.302;10.128;2023-07-13T00:08:30;3.93;;;2.30;;
15706;SDS011;7953;54.302;10.128;2023-07-13T00:10:58;3.40;;;2.50;;
15706;SDS011;7953;54.302;10.128;2023-07-13T00:13:24;7.27;;;3.10;;
15706;SDS011;7953;54.302;10.128;2023-07-13T00:15:51;9.20;;;2.93;;
15706;SDS011;7953;54.302;10.128;2023-07-13T00:18:19;5.60;;;2.80;;
15706;SDS011;7953;54.302;10.128;2023-07-13T00:20:46;5.60;;;2.97;;
15706;SDS011;7953;54.302;10.128;2023-07-13T00:23:15;8.73;;;3.37;;
15706;SDS011;7953;54.302;10.128;2023-07-13T00:25:44;9.93;;;3.40;;
15706;SDS011;7953;54.302;10.128;2023-07-13T00:28:11;8.00;;;3.40;;
15706;SDS011;7953;54.302;10.128;2023-07-13T00:30:38;5.87;;;3.17;;
15706;SDS011;7953;54.302;10.128;2023-07-13T00:33:04;10.10;;;3.60;;
15706;SDS011;7953;54.302;10.128;2023-07-13T00:35:34;7.10;;;3.37;;
15706;SDS011;7953;54.302;10.128;2023-07-13T00:38:01;6.37;;;3.07;;
15706;SDS011;7953;54.302;10.128;2023-07-13T00:40:29;6.13;;;3.10;;
15706;SDS011;7953;54.302;10.128;2023-07-13T00:42:57;8.57;;;3.53;;
15706;SDS011;7953;54.302;10.128;2023-07-13T00:48:36;6.83;;;4.17;;
15706;SDS011;7953;54.302;10.128;2023-07-13T00:51:04;6.10;;;3.67;;
15706;SDS011;7953;54.302;10.128;2023-07-13T00:53:31;5.87;;;3.43;;
15706;SDS011;7953;54.302;10.128;2023-07-13T00:56:00;10.27;;;3.63;;
15706;SDS011;7953;54.302;10.128;2023-07-13T00:58:27;6.77;;;3.83;;
15706;SDS011;7953;54.302;10.128;2023-07-13T01:00:55;9.80;;;3.90;;
15706;SDS011;7953;54.302;10.128;2023-07-13T01:03:22;8.20;;;3.90;;
15706;SDS011;7953;54.302;10.128;2023-07-13T01:05:49;6.53;;;3.63;;
15706;SDS011;7953;54.302;10.128;2023-07-13T01:08:18;9.47;;;4.20;;
15706;SDS011;7953;54.302;10.128;2023-07-13T01:10:50;5.37;;;3.40;;
15706;SDS011;7953;54.302;10.128;2023-07-13T01:13:19;6.83;;;4.10;;
15706;SDS011;7953;54.302;10.128;2023-07-13T01:15:47;7.40;;;3.93;;
15706;SDS011;7953;54.302;10.128;2023-07-13T01:18:18;5.60;;;4.00;;
15706;SDS011;7953;54.302;10.128;2023-07-13T01:20:51;9.20;;;3.73;;
15706;SDS011;7953;54.302;10.128;2023-07-13T01:23:18;4.83;;;3.27;;
15706;SDS011;7953;54.302;10.128;2023-07-13T01:25:45;11.13;;;3.53;;
15706;SDS011;7953;54.302;10.128;2023-07-13T01:28:12;7.70;;;3.20;;
15706;SDS011;7953;54.302;10.128;2023-07-13T01:30:42;7.73;;;3.63;;
15706;SDS011;7953;54.302;10.128;2023-07-13T01:33:11;7.97;;;3.80;;
15706;SDS011;7953;54.302;10.128;2023-07-13T01:35:39;5.73;;;3.10;;
15706;SDS011;7953;54.302;10.128;2023-07-13T01:38:07;9.30;;;3.67;;
15706;SDS011;7953;54.302;10.128;2023-07-13T01:40:35;5.17;;;2.97;;
15706;SDS011;7953;54.302;10.128;2023-07-13T01:43:03;6.80;;;3.37;;
15706;SDS011;7953;54.302;10.128;2023-07-13T01:45:29;5.30;;;3.07;;
15706;SDS011;7953;54.302;10.128;2023-07-13T01:47:57;8.33;;;3.70;;
15706;SDS011;7953;54.302;10.128;2023-07-13T01:50:24;8.80;;;3.43;;
15706;SDS011;7953;54.302;10.128;2023-07-13T01:52:51;6.30;;;3.37;;
15706;SDS011;7953;54.302;10.128;2023-07-13T01:55:20;7.47;;;3.50;;
15706;SDS011;7953;54.302;10.128;2023-07-13T01:57:48;7.33;;;4.30;;
15706;SDS011;7953;54.302;10.128;2023-07-13T02:00:14;5.73;;;3.53;;
15706;SDS011;7953;54.302;10.128;2023-07-13T02:02:42;7.30;;;3.20;;
15706;SDS011;7953;54.302;10.128;2023-07-13T02:05:09;5.53;;;3.20;;
15706;SDS011;7953;54.302;10.128;2023-07-13T02:07:36;7.73;;;3.83;;
15706;SDS011;7953;54.302;10.128;2023-07-13T02:10:04;6.60;;;3.37;;
15706;SDS011;7953;54.302;10.128;2023-07-13T02:12:32;8.63;;;3.37;;
15706;SDS011;7953;54.302;10.128;2023-07-13T02:15:00;6.00;;;2.93;;
15706;SDS011;7953;54.302;10.128;2023-07-13T02:17:27;5.20;;;3.00;;
15706;SDS011;7953;54.302;10.128;2023-07-13T02:19:54;5.80;;;3.20;;
15706;SDS011;7953;54.302;10.128;2023-07-13T02:22:21;6.90;;;3.33;;
15706;SDS011;7953;54.302;10.128;2023-07-13T02:24:48;5.57;;;3.53;;
15706;SDS011;7953;54.302;10.128;2023-07-13T02:27:15;5.07;;;2.80;;
15706;SDS011;7953;54.302;10.128;2023-07-13T02:29:44;5.13;;;3.30;;
15706;SDS011;7953;54.302;10.128;2023-07-13T02:32:10;7.03;;;2.83;;
15706;SDS011;7953;54.302;10.128;2023-07-13T02:34:38;7.37;;;2.60;;
15706;SDS011;7953;54.302;10.128;2023-07-13T02:37:07;3.43;;;2.20;;
15706;SDS011;7953;54.302;10.128;2023-07-13T02:39:34;6.33;;;2.90;;
15706;SDS011;7953;54.302;10.128;2023-07-13T02:42:01;6.90;;;2.67;;
15706;SDS011;7953;54.302;10.128;2023-07-13T02:44:28;7.20;;;2.47;;
15706;SDS011;7953;54.302;10.128;2023-07-13T02:46:57;3.80;;;2.50;;
15706;SDS011;7953;54.302;10.128;2023-07-13T02:49:23;5.10;;;2.73;;
15706;SDS011;7953;54.302;10.128;2023-07-13T02:51:50;5.57;;;2.30;;
15706;SDS011;7953;54.302;10.128;2023-07-13T02:54:17;4.50;;;2.73;;
15706;SDS011;7953;54.302;10.128;2023-07-13T02:56:44;8.30;;;3.03;;
15706;SDS011;7953;54.302;10.128;2023-07-13T02:59:11;3.50;;;2.57;;
15706;SDS011;7953;54.302;10.128;2023-07-13T03:01:38;4.50;;;2.87;;
15706;SDS011;7953;54.302;10.128;2023-07-13T03:04:07;7.20;;;3.13;;
15706;SDS011;7953;54.302;10.128;2023-07-13T03:06:34;6.07;;;3.40;;
15706;SDS011;7953;54.302;10.128;2023-07-13T03:09:01;6.77;;;3.53;;
15706;SDS011;7953;54.302;10.128;2023-07-13T03:11:28;4.20;;;3.80;;
15706;SDS011;7953;54.302;10.128;2023-07-13T03:13:56;7.03;;;4.13;;
15706;SDS011;7953;54.302;10.128;2023-07-13T03:16:24;3.80;;;3.37;;
15706;SDS011;7953;54.302;10.128;2023-07-13T03:18:50;8.27;;;4.30;;
15706;SDS011;7953;54.302;10.128;2023-07-13T03:21:19;6.50;;;5.20;;
15706;SDS011;7953;54.302;10.128;2023-07-13T03:23:46;5.80;;;4.47;;
15706;SDS011;7953;54.302;10.128;2023-07-13T03:26:15;6.00;;;4.77;;
15706;SDS011;7953;54.302;10.128;2023-07-13T03:28:44;10.13;;;5.20;;
15706;SDS011;7953;54.302;10.128;2023-07-13T03:31:16;9.23;;;4.67;;
15706;SDS011;7953;54.302;10.128;2023-07-13T03:33:44;6.93;;;5.03;;
15706;SDS011;7953;54.302;10.128;2023-07-13T03:36:13;7.37;;;4.93;;
15706;SDS011;7953;54.302;10.128;2023-07-13T03:38:46;9.37;;;5.20;;
15706;SDS011;7953;54.302;10.128;2023-07-13T03:41:14;8.33;;;4.90;;
15706;SDS011;7953;54.302;10.128;2023-07-13T03:43:41;5.80;;;4.70;;
15706;SDS011;7953;54.302;10.128;2023-07-13T03:46:08;5.33;;;4.83;;
15706;SDS011;7953;54.302;10.128;2023-07-13T03:48:35;7.77;;;5.43;;
15706;SDS011;7953;54.302;10.128;2023-07-13T03:51:04;9.73;;;5.40;;
15706;SDS011;7953;54.302;10.128;2023-07-13T03:53:31;5.40;;;4.77;;
15706;SDS011;7953;54.302;10.128;2023-07-13T03:56:00;9.20;;;5.30;;
15706;SDS011;7953;54.302;10.128;2023-07-13T03:58:28;9.10;;;5.30;;
15706;SDS011;7953;54.302;10.128;2023-07-13T04:00:57;9.63;;;5.93;;
15706;SDS011;7953;54.302;10.128;2023-07-13T04:03:24;8.67;;;6.00;;
15706;SDS011;7953;54.302;10.128;2023-07-13T04:05:53;6.97;;;5.60;;
15706;SDS011;7953;54.302;10.128;2023-07-13T04:08:25;9.70;;;6.10;;
15706;SDS011;7953;54.302;10.128;2023-07-13T04:10:53;12.73;;;6.17;;
15706;SDS011;7953;54.302;10.128;2023-07-13T04:13:21;6.07;;;5.43;;
15706;SDS011;7953;54.302;10.128;2023-07-13T04:15:49;8.43;;;5.60;;
15706;SDS011;7953;54.302;10.128;2023-07-13T04:18:16;10.13;;;6.00;;
15706;SDS011;7953;54.302;10.128;2023-07-13T04:20:44;8.23;;;6.20;;
15706;SDS011;7953;54.302;10.128;2023-07-13T04:23:11;11.13;;;6.20;;
15706;SDS011;7953;54.302;10.128;2023-07-13T04:25:38;14.33;;;7.73;;
15706;SDS011;7953;54.302;10.128;2023-07-13T04:28:06;9.60;;;6.30;;
15706;SDS011;7953;54.302;10.128;2023-07-13T04:30:34;7.80;;;5.20;;
15706;SDS011;7953;54.302;10.128;2023-07-13T04:33:01;7.57;;;5.43;;
15706;SDS011;7953;54.302;10.128;2023-07-13T04:35:30;11.77;;;5.40;;
15706;SDS011;7953;54.302;10.128;2023-07-13T04:37:57;7.97;;;4.77;;
15706;SDS011;7953;54.302;10.128;2023-07-13T04:40:23;7.20;;;5.30;;
15706;SDS011;7953;54.302;10.128;2023-07-13T04:42:53;8.37;;;5.33;;
15706;SDS011;7953;54.302;10.128;2023-07-13T04:45:21;7.20;;;4.53;;
15706;SDS011;7953;54.302;10.128;2023-07-13T04:47:50;6.10;;;4.83;;
15706;SDS011;7953;54.302;10.128;2023-07-13T04:50:17;9.23;;;5.43;;
15706;SDS011;7953;54.302;10.128;2023-07-13T04:52:48;9.37;;;5.63;;
15706;SDS011;7953;54.302;10.128;2023-07-13T04:55:15;8.07;;;5.57;;
15706;SDS011;7953;54.302;10.128;2023-07-13T04:57:42;9.00;;;5.37;;
15706;SDS011;7953;54.302;10.128;2023-07-13T05:00:10;9.60;;;5.27;;
15706;SDS011;7953;54.302;10.128;2023-07-13T05:02:38;6.93;;;4.80;;
15706;SDS011;7953;54.302;10.128;2023-07-13T05:05:07;8.40;;;4.87;;
15706;SDS011;7953;54.302;10.128;2023-07-13T05:07:35;6.90;;;5.07;;
15706;SDS011;7953;54.302;10.128;2023-07-13T05:10:02;9.60;;;4.93;;
15706;SDS011;7953;54.302;10.128;2023-07-13T05:12:29;7.73;;;5.20;;
15706;SDS011;7953;54.302;10.128;2023-07-13T05:14:56;6.33;;;4.90;;
15706;SDS011;7953;54.302;10.128;2023-07-13T05:17:24;13.00;;;4.67;;
15706;SDS011;7953;54.302;10.128;2023-07-13T05:19:51;6.10;;;4.10;;
15706;SDS011;7953;54.302;10.128;2023-07-13T05:22:20;8.17;;;4.13;;
15706;SDS011;7953;54.302;10.128;2023-07-13T05:24:46;8.03;;;4.50;;
15706;SDS011;7953;54.302;10.128;2023-07-13T05:27:13;6.73;;;4.50;;
15706;SDS011;7953;54.302;10.128;2023-07-13T05:29:40;6.23;;;4.00;;
15706;SDS011;7953;54.302;10.128;2023-07-13T05:32:07;7.40;;;4.33;;
15706;SDS011;7953;54.302;10.128;2023-07-13T05:34:34;5.80;;;3.30;;
15706;SDS011;7953;54.302;10.128;2023-07-13T05:37:01;7.17;;;4.03;;
15706;SDS011;7953;54.302;10.128;2023-07-13T05:39:30;5.63;;;3.97;;
15706;SDS011;7953;54.302;10.128;2023-07-13T05:41:57;5.00;;;4.10;;
15706;SDS011;7953;54.302;10.128;2023-07-13T05:44:24;9.37;;;4.53;;
15706;SDS011;7953;54.302;10.128;2023-07-13T05:46:51;5.20;;;3.20;;
15706;SDS011;7953;54.302;10.128;2023-07-13T05:49:18;7.70;;;3.87;;
15706;SDS011;7953;54.302;10.128;2023-07-13T05:51:44;5.83;;;3.60;;
15706;SDS011;7953;54.302;10.128;2023-07-13T05:54:11;11.77;;;4.00;;
15706;SDS011;7953;54.302;10.128;2023-07-13T05:56:39;4.80;;;4.10;;
15706;SDS011;7953;54.302;10.128;2023-07-13T05:59:06;6.47;;;3.80;;
15706;SDS011;7953;54.302;10.128;2023-07-13T06:01:33;6.60;;;3.63;;
15706;SDS011;7953;54.302;10.128;2023-07-13T06:04:00;7.63;;;4.37;;
15706;SDS011;7953;54.302;10.128;2023-07-13T06:06:28;9.17;;;4.07;;
15706;SDS011;7953;54.302;10.128;2023-07-13T06:08:55;10.97;;;4.73;;
15706;SDS011;7953;54.302;10.128;2023-07-13T06:11:23;9.57;;;4.17;;
15706;SDS011;7953;54.302;10.128;2023-07-13T06:13:53;6.90;;;4.43;;
15706;SDS011;7953;54.302;10.128;2023-07-13T06:16:20;6.80;;;3.80;;
15706;SDS011;7953;54.302;10.128;2023-07-13T06:18:47;10.00;;;4.30;;
15706;SDS011;7953;54.302;10.128;2023-07-13T06:21:14;6.80;;;3.80;;
15706;SDS011;7953;54.302;10.128;2023-07-13T06:23:44;7.97;;;4.17;;
15706;SDS011;7953;54.302;10.128;2023-07-13T06:26:13;8.03;;;3.47;;
15706;SDS011;7953;54.302;10.128;2023-07-13T06:28:40;6.53;;;3.80;;
15706;SDS011;7953;54.302;10.128;2023-07-13T06:31:09;10.87;;;3.70;;
15706;SDS011;7953;54.302;10.128;2023-07-13T06:33:38;9.00;;;3.73;;
15706;SDS011;7953;54.302;10.128;2023-07-13T06:36:05;9.13;;;4.67;;
15706;SDS011;7953;54.302;10.128;2023-07-13T06:38:34;10.20;;;4.03;;
15706;SDS011;7953;54.302;10.128;2023-07-13T06:41:01;8.73;;;3.90;;
15706;SDS011;7953;54.302;10.128;2023-07-13T06:43:28;8.47;;;3.87;;
15706;SDS011;7953;54.302;10.128;2023-07-13T06:45:57;7.17;;;4.30;;
15706;SDS011;7953;54.302;10.128;2023-07-13T06:48:26;9.10;;;4.30;;
15706;SDS011;7953;54.302;10.128;2023-07-13T06:50:53;14.37;;;5.17;;
15706;SDS011;7953;54.302;10.128;2023-07-13T06:53:20;11.97;;;4.47;;
15706;SDS011;7953;54.302;10.128;2023-07-13T06:55:47;4.90;;;3.63;;
15706;SDS011;7953;54.302;10.128;2023-07-13T06:58:14;8.23;;;4.07;;
15706;SDS011;7953;54.302;10.128;2023-07-13T07:00:42;12.40;;;4.10;;
15706;SDS011;7953;54.302;10.128;2023-07-13T07:03:09;11.20;;;4.20;;
15706;SDS011;7953;54.302;10.128;2023-07-13T07:05:37;10.63;;;3.87;;
15706;SDS011;7953;54.302;10.128;2023-07-13T07:08:04;10.70;;;3.60;;
15706;SDS011;7953;54.302;10.128;2023-07-13T07:10:32;6.93;;;3.20;;
15706;SDS011;7953;54.302;10.128;2023-07-13T07:13:00;6.50;;;3.67;;
15706;SDS011;7953;54.302;10.128;2023-07-13T07:15:27;8.17;;;3.30;;
15706;SDS011;7953;54.302;10.128;2023-07-13T07:17:54;8.27;;;3.03;;
15706;SDS011;7953;54.302;10.128;2023-07-13T07:20:21;11.30;;;4.10;;
15706;SDS011;7953;54.302;10.128;2023-07-13T07:22:50;5.17;;;2.90;;
15706;SDS011;7953;54.302;10.128;2023-07-13T07:25:17;6.87;;;3.37;;
15706;SDS011;7953;54.302;10.128;2023-07-13T07:27:44;7.07;;;2.80;;
15706;SDS011;7953;54.302;10.128;2023-07-13T07:30:12;8.83;;;3.47;;
15706;SDS011;7953;54.302;10.128;2023-07-13T07:32:40;8.37;;;2.87;;
15706;SDS011;7953;54.302;10.128;2023-07-13T07:35:08;9.87;;;3.20;;
15706;SDS011;7953;54.302;10.128;2023-07-13T07:37:35;9.43;;;3.53;;
15706;SDS011;7953;54.302;10.128;2023-07-13T07:40:04;9.87;;;3.13;;
15706;SDS011;7953;54.302;10.128;2023-07-13T07:42:33;5.80;;;2.97;;
15706;SDS011;7953;54.302;10.128;2023-07-13T07:45:00;6.07;;;2.43;;
15706;SDS011;7953;54.302;10.128;2023-07-13T07:47:27;9.07;;;2.90;;
15706;SDS011;7953;54.302;10.128;2023-07-13T07:49:54;6.97;;;3.00;;
15706;SDS011;7953;54.302;10.128;2023-07-13T07:52:21;5.60;;;2.17;;
15706;SDS011;7953;54.302;10.128;2023-07-13T07:54:47;8.23;;;2.83;;
15706;SDS011;7953;54.302;10.128;2023-07-13T07:57:16;4.43;;;2.37;;
15706;SDS011;7953;54.302;10.128;2023-07-13T07:59:42;6.30;;;2.30;;
15706;SDS011;7953;54.302;10.128;2023-07-13T08:02:09;6.20;;;2.80;;
15706;SDS011;7953;54.302;10.128;2023-07-13T08:04:37;6.50;;;2.03;;
15706;SDS011;7953;54.302;10.128;2023-07-13T08:07:04;6.93;;;2.37;;
15706;SDS011;7953;54.302;10.128;2023-07-13T08:09:32;5.40;;;2.20;;
15706;SDS011;7953;54.302;10.128;2023-07-13T08:11:59;7.13;;;2.77;;
15706;SDS011;7953;54.302;10.128;2023-07-13T08:14:27;3.90;;;1.87;;
15706;SDS011;7953;54.302;10.128;2023-07-13T08:16:54;4.23;;;1.73;;
15706;SDS011;7953;54.302;10.128;2023-07-13T08:19:21;8.57;;;2.23;;
15706;SDS011;7953;54.302;10.128;2023-07-13T08:21:48;5.20;;;2.03;;
15706;SDS011;7953;54.302;10.128;2023-07-13T08:24:15;5.20;;;2.03;;
15706;SDS011;7953;54.302;10.128;2023-07-13T08:26:43;9.90;;;2.20;;
15706;SDS011;7953;54.302;10.128;2023-07-13T08:29:11;3.80;;;1.97;;
15706;SDS011;7953;54.302;10.128;2023-07-13T08:31:39;2.90;;;2.00;;
15706;SDS011;7953;54.302;10.128;2023-07-13T08:34:06;4.27;;;1.93;;
15706;SDS011;7953;54.302;10.128;2023-07-13T08:36:33;4.60;;;1.67;;
15706;SDS011;7953;54.302;10.128;2023-07-13T08:39:00;5.43;;;2.43;;
15706;SDS011;7953;54.302;10.128;2023-07-13T08:41:27;3.57;;;1.53;;
15706;SDS011;7953;54.302;10.128;2023-07-13T08:43:56;5.93;;;1.93;;
15706;SDS011;7953;54.302;10.128;2023-07-13T08:46:26;5.70;;;1.77;;
15706;SDS011;7953;54.302;10.128;2023-07-13T08:49:01;4.43;;;2.20;;
15706;SDS011;7953;54.302;10.128;2023-07-13T08:51:33;4.77;;;2.10;;
15706;SDS011;7953;54.302;10.128;2023-07-13T08:54:09;3.97;;;1.97;;
15706;SDS011;7953;54.302;10.128;2023-07-13T08:56:43;4.70;;;2.03;;
15706;SDS011;7953;54.302;10.128;2023-07-13T08:59:13;6.90;;;2.50;;
15706;SDS011;7953;54.302;10.128;2023-07-13T09:01:55;11.37;;;2.97;;
15706;SDS011;7953;54.302;10.128;2023-07-13T09:04:42;4.50;;;1.47;;
15706;SDS011;7953;54.302;10.128;2023-07-13T09:07:14;3.73;;;1.87;;
15706;SDS011;7953;54.302;10.128;2023-07-13T09:09:55;6.53;;;2.37;;
15706;SDS011;7953;54.302;10.128;2023-07-13T09:12:40;6.57;;;1.87;;
15706;SDS011;7953;54.302;10.128;2023-07-13T09:15:21;9.63;;;2.70;;
15706;SDS011;7953;54.302;10.128;2023-07-13T09:17:55;3.47;;;2.30;;
15706;SDS011;7953;54.302;10.128;2023-07-13T09:20:28;3.10;;;2.10;;
15706;SDS011;7953;54.302;10.128;2023-07-13T09:22:59;3.17;;;2.00;;
15706;SDS011;7953;54.302;10.128;2023-07-13T09:25:30;2.93;;;2.00;;
15706;SDS011;7953;54.302;10.128;2023-07-13T09:27:58;7.43;;;2.73;;
15706;SDS011;7953;54.302;10.128;2023-07-13T09:30:36;5.07;;;2.30;;
15706;SDS011;7953;54.302;10.128;2023-07-13T09:33:09;5.27;;;2.77;;
15706;SDS011;7953;54.302;10.128;2023-07-13T09:35:37;4.10;;;2.20;;
15706;SDS011;7953;54.302;10.128;2023-07-13T09:38:10;5.07;;;2.63;;
15706;SDS011;7953;54.302;10.128;2023-07-13T09:40:49;8.70;;;2.73;;
15706;SDS011;7953;54.302;10.128;2023-07-13T09:43:24;4.40;;;2.30;;
15706;SDS011;7953;54.302;10.128;2023-07-13T09:45:53;4.50;;;1.77;;
15706;SDS011;7953;54.302;10.128;2023-07-13T09:48:21;3.93;;;2.20;;
15706;SDS011;7953;54.302;10.128;2023-07-13T09:50:51;3.13;;;2.13;;
15706;SDS011;7953;54.302;10.128;2023-07-13T09:53:22;4.07;;;2.40;;
15706;SDS011;7953;54.302;10.128;2023-07-13T09:55:49;5.83;;;1.90;;
15706;SDS011;7953;54.302;10.128;2023-07-13T09:58:17;6.33;;;2.07;;
15706;SDS011;7953;54.302;10.128;2023-07-13T10:00:53;6.43;;;2.87;;
15706;SDS011;7953;54.302;10.128;2023-07-13T10:03:23;6.67;;;2.30;;
15706;SDS011;7953;54.302;10.128;2023-07-13T10:05:53;7.60;;;2.33;;
15706;SDS011;7953;54.302;10.128;2023-07-13T10:08:21;5.60;;;2.30;;
15706;SDS011;7953;54.302;10.128;2023-07-13T10:10:53;4.53;;;1.80;;
15706;SDS011;7953;54.302;10.128;2023-07-13T10:13:29;4.23;;;2.23;;
15706;SDS011;7953;54.302;10.128;2023-07-13T10:15:59;3.20;;;1.90;;
15706;SDS011;7953;54.302;10.128;2023-07-13T10:18:26;5.03;;;2.40;;
15706;SDS011;7953;54.302;10.128;2023-07-13T10:21:00;5.37;;;2.13;;
15706;SDS011;7953;54.302;10.128;2023-07-13T10:23:37;6.87;;;2.20;;
15706;SDS011;7953;54.302;10.128;2023-07-13T10:26:04;7.30;;;2.07;;
15706;SDS011;7953;54.302;10.128;2023-07-13T10:28:36;6.23;;;1.87;;
15706;SDS011;7953;54.302;10.128;2023-07-13T10:31:04;3.77;;;2.17;;
15706;SDS011;7953;54.302;10.128;2023-07-13T10:33:37;3.77;;;1.47;;
15706;SDS011;7953;54.302;10.128;2023-07-13T10:36:11;3.17;;;1.40;;
15706;SDS011;7953;54.302;10.128;2023-07-13T10:38:41;4.23;;;1.40;;
15706;SDS011;7953;54.302;10.128;2023-07-13T10:41:10;2.90;;;1.00;;
15706;SDS011;7953;54.302;10.128;2023-07-13T10:43:42;1.57;;;0.73;;
15706;SDS011;7953;54.302;10.128;2023-07-13T10:46:11;2.90;;;1.07;;
15706;SDS011;7953;54.302;10.128;2023-07-13T10:48:40;6.23;;;1.40;;
15706;SDS011;7953;54.302;10.128;2023-07-13T10:51:12;1.70;;;1.00;;
15706;SDS011;7953;54.302;10.128;2023-07-13T10:53:40;2.00;;;0.90;;
15706;SDS011;7953;54.302;10.128;2023-07-13T10:56:16;2.93;;;1.40;;
15706;SDS011;7953;54.302;10.128;2023-07-13T10:58:50;5.33;;;1.43;;
15706;SDS011;7953;54.302;10.128;2023-07-13T11:01:39;2.10;;;1.10;;
15706;SDS011;7953;54.302;10.128;2023-07-13T11:04:08;1.77;;;0.70;;
15706;SDS011;7953;54.302;10.128;2023-07-13T11:06:41;0.97;;;0.73;;
15706;SDS011;7953;54.302;10.128;2023-07-13T11:12:08;1.70;;;1.00;;
15706;SDS011;7953;54.302;10.128;2023-07-13T11:15:01;3.10;;;1.10;;
15706;SDS011;7953;54.302;10.128;2023-07-13T11:17:37;3.53;;;0.80;;
15706;SDS011;7953;54.302;10.128;2023-07-13T11:20:24;4.67;;;1.20;;
15706;SDS011;7953;54.302;10.128;2023-07-13T11:23:17;3.77;;;1.20;;
15706;SDS011;7953;54.302;10.128;2023-07-13T11:25:56;1.73;;;0.93;;
15706;SDS011;7953;54.302;10.128;2023-07-13T11:28:25;2.13;;;1.07;;
15706;SDS011;7953;54.302;10.128;2023-07-13T11:31:00;2.10;;;1.00;;
15706;SDS011;7953;54.302;10.128;2023-07-13T11:33:51;1.73;;;0.90;;
15706;SDS011;7953;54.302;10.128;2023-07-13T11:36:24;3.80;;;1.23;;
15706;SDS011;7953;54.302;10.128;2023-07-13T11:38:59;2.57;;;1.03;;
15706;SDS011;7953;54.302;10.128;2023-07-13T11:41:30;2.97;;;1.00;;
15706;SDS011;7953;54.302;10.128;2023-07-13T11:44:07;5.30;;;1.00;;
15706;SDS011;7953;54.302;10.128;2023-07-13T11:46:37;2.00;;;1.00;;
15706;SDS011;7953;54.302;10.128;2023-07-13T11:49:05;5.27;;;1.23;;
15706;SDS011;7953;54.302;10.128;2023-07-13T11:51:33;2.90;;;1.30;;
15706;SDS011;7953;54.302;10.128;2023-07-13T11:54:03;2.47;;;1.17;;
15706;SDS011;7953;54.302;10.128;2023-07-13T11:56:33;2.50;;;1.50;;
15706;SDS011;7953;54.302;10.128;2023-07-13T11:59:03;3.20;;;1.30;;
15706;SDS011;7953;54.302;10.128;2023-07-13T12:01:33;3.00;;;1.20;;
15706;SDS011;7953;54.302;10.128;2023-07-13T12:04:03;4.33;;;1.10;;
15706;SDS011;7953;54.302;10.128;2023-07-13T12:06:32;4.17;;;1.17;;
15706;SDS011;7953;54.302;10.128;2023-07-13T12:09:03;6.73;;;1.23;;
15706;SDS011;7953;54.302;10.128;2023-07-13T12:11:39;2.67;;;1.33;;
15706;SDS011;7953;54.302;10.128;2023-07-13T12:14:12;3.47;;;1.20;;
15706;SDS011;7953;54.302;10.128;2023-07-13T12:16:41;2.63;;;0.90;;
15706;SDS011;7953;54.302;10.128;2023-07-13T12:19:14;4.90;;;1.10;;
15706;SDS011;7953;54.302;10.128;2023-07-13T12:21:46;3.80;;;1.20;;
15706;SDS011;7953;54.302;10.128;2023-07-13T12:24:16;3.07;;;1.00;;
15706;SDS011;7953;54.302;10.128;2023-07-13T12:26:44;1.10;;;1.00;;
15706;SDS011;7953;54.302;10.128;2023-07-13T12:29:18;2.30;;;1.10;;
15706;SDS011;7953;54.302;10.128;2023-07-13T12:31:45;4.03;;;1.13;;
15706;SDS011;7953;54.302;10.128;2023-07-13T12:34:14;2.20;;;1.00;;
15706;SDS011;7953;54.302;10.128;2023-07-13T12:36:45;2.20;;;1.07;;
15706;SDS011;7953;54.302;10.128;2023-07-13T12:39:16;2.83;;;1.00;;
15706;SDS011;7953;54.302;10.128;2023-07-13T12:41:45;3.70;;;0.90;;
15706;SDS011;7953;54.302;10.128;2023-07-13T12:44:13;1.23;;;0.80;;
15706;SDS011;7953;54.302;10.128;2023-07-13T12:46:53;6.13;;;1.50;;
15706;SDS011;7953;54.302;10.128;2023-07-13T12:49:27;5.23;;;1.40;;
15706;SDS011;7953;54.302;10.128;2023-07-13T12:51:58;2.27;;;1.10;;
15706;SDS011;7953;54.302;10.128;2023-07-13T12:54:28;2.37;;;0.90;;
15706;SDS011;7953;54.302;10.128;2023-07-13T12:56:55;4.03;;;1.00;;
15706;SDS011;7953;54.302;10.128;2023-07-13T12:59:25;2.60;;;1.10;;
15706;SDS011;7953;54.302;10.128;2023-07-13T13:01:58;2.67;;;1.07;;
15706;SDS011;7953;54.302;10.128;2023-07-13T13:04:27;3.03;;;1.23;;
15706;SDS011;7953;54.302;10.128;2023-07-13T13:07:01;3.90;;;1.17;;
15706;SDS011;7953;54.302;10.128;2023-07-13T13:09:31;3.30;;;0.97;;
15706;SDS011;7953;54.302;10.128;2023-07-13T13:11:58;2.70;;;1.00;;
15706;SDS011;7953;54.302;10.128;2023-07-13T13:14:25;3.50;;;1.10;;
15706;SDS011;7953;54.302;10.128;2023-07-13T13:16:52;1.53;;;0.63;;
15706;SDS011;7953;54.302;10.128;2023-07-13T13:19:20;2.03;;;0.90;;
15706;SDS011;7953;54.302;10.128;2023-07-13T13:21:49;2.87;;;0.93;;
15706;SDS011;7953;54.302;10.128;2023-07-13T13:24:18;2.67;;;1.07;;
15706;SDS011;7953;54.302;10.128;2023-07-13T13:26:48;2.10;;;0.87;;
15706;SDS011;7953;54.302;10.128;2023-07-13T13:29:17;2.67;;;0.80;;
15706;SDS011;7953;54.302;10.128;2023-07-13T13:31:46;3.10;;;1.00;;
15706;SDS011;7953;54.302;10.128;2023-07-13T13:34:14;4.23;;;1.03;;
15706;SDS011;7953;54.302;10.128;2023-07-13T13:36:43;1.87;;;0.87;;
15706;SDS011;7953;54.302;10.128;2023-07-13T13:39:16;2.47;;;1.23;;
15706;SDS011;7953;54.302;10.128;2023-07-13T13:41:48;3.33;;;1.00;;
15706;SDS011;7953;54.302;10.128;2023-07-13T13:44:16;4.60;;;1.30;;
15706;SDS011;7953;54.302;10.128;2023-07-13T13:46:44;3.33;;;1.33;;
15706;SDS011;7953;54.302;10.128;2023-07-13T13:49:13;3.73;;;1.20;;
15706;SDS011;7953;54.302;10.128;2023-07-13T13:51:41;5.20;;;1.37;;
15706;SDS011;7953;54.302;10.128;2023-07-13T13:54:10;5.03;;;1.37;;
15706;SDS011;7953;54.302;10.128;2023-07-13T13:56:39;4.40;;;1.33;;
15706;SDS011;7953;54.302;10.128;2023-07-13T13:59:08;2.53;;;1.13;;
15706;SDS011;7953;54.302;10.128;2023-07-13T14:01:35;2.30;;;1.10;;
15706;SDS011;7953;54.302;10.128;2023-07-13T14:04:02;3.00;;;1.03;;
15706;SDS011;7953;54.302;10.128;2023-07-13T14:06:30;4.53;;;1.57;;
15706;SDS011;7953;54.302;10.128;2023-07-13T14:08:57;4.47;;;1.23;;
15706;SDS011;7953;54.302;10.128;2023-07-13T14:11:25;2.60;;;1.07;;
15706;SDS011;7953;54.302;10.128;2023-07-13T14:13:53;3.67;;;1.47;;
15706;SDS011;7953;54.302;10.128;2023-07-13T14:16:25;4.63;;;1.10;;
15706;SDS011;7953;54.302;10.128;2023-07-13T14:18:54;2.80;;;1.07;;
15706;SDS011;7953;54.302;10.128;2023-07-13T14:21:24;2.37;;;1.10;;
15706;SDS011;7953;54.302;10.128;2023-07-13T14:23:52;2.63;;;1.10;;
15706;SDS011;7953;54.302;10.128;2023-07-13T14:26:20;2.47;;;1.20;;
15706;SDS011;7953;54.302;10.128;2023-07-13T14:28:49;2.07;;;1.00;;
15706;SDS011;7953;54.302;10.128;2023-07-13T14:31:17;3.23;;;1.10;;
15706;SDS011;7953;54.302;10.128;2023-07-13T14:33:47;2.90;;;1.67;;
15706;SDS011;7953;54.302;10.128;2023-07-13T14:36:20;2.33;;;1.07;;
15706;SDS011;7953;54.302;10.128;2023-07-13T14:38:52;3.33;;;1.00;;
15706;SDS011;7953;54.302;10.128;2023-07-13T14:41:20;4.40;;;1.70;;
15706;SDS011;7953;54.302;10.128;2023-07-13T14:43:47;2.97;;;1.10;;
15706;SDS011;7953;54.302;10.128;2023-07-13T14:46:18;5.07;;;1.33;;
15706;SDS011;7953;54.302;10.128;2023-07-13T14:48:59;3.30;;;1.37;;
15706;SDS011;7953;54.302;10.128;2023-07-13T14:51:30;2.17;;;1.30;;
15706;SDS011;7953;54.302;10.128;2023-07-13T14:53:58;2.80;;;1.17;;
15706;SDS011;7953;54.302;10.128;2023-07-13T14:56:28;4.13;;;1.20;;
15706;SDS011;7953;54.302;10.128;2023-07-13T14:58:55;3.43;;;1.23;;
15706;SDS011;7953;54.302;10.128;2023-07-13T15:01:22;4.83;;;1.20;;
15706;SDS011;7953;54.302;10.128;2023-07-13T15:03:50;3.70;;;1.30;;
15706;SDS011;7953;54.302;10.128;2023-07-13T15:06:19;1.33;;;0.83;;